EHSA

Euro Platform

Euro Platform, The Netherlands
METAR EHSA 160525Z AUTO 17021KT 7000 ///////// 05/04 Q1006 W07/H17
Observed Flight Rules
Dec-16 @ 05:25 UTC (27 minutes ago)
Wind Visibility
170° at 21 knots 7,001 meters
Temperatures Readings
Current 5°C / 41°F
Dewpoint 4°C / 39°F
Humidity 93%
Altimeter 29.7" Hg
Pressure 1006 hPa
Elevation 50
METAR EHSA 160525Z AUTO 17021KT 7000 ///////// 05/04 Q1006 W07/H17
Observed Flight Rules
Dec-16 @ 05:25 UTC
(27 minutes ago)
Wind Visibility
170° at 21 knots 7,001 meters
Temperature Dewpoint
5°C / 41°F 4°C / 39°F
Humidity Altimeter Pressure
93% 29.7" Hg 1006 hPa